createdAt,value
2018-11-07T00:01:30.094Z,16.43
2018-11-07T00:03:58.436Z,21.87
2018-11-07T00:06:26.734Z,19.80
2018-11-07T00:08:55.003Z,17.13
2018-11-07T00:11:23.282Z,18.47
2018-11-07T00:13:51.599Z,16.47
2018-11-07T00:16:19.861Z,19.47
2018-11-07T00:18:48.256Z,16.33
2018-11-07T00:21:16.568Z,17.47
2018-11-07T00:23:44.836Z,14.90
2018-11-07T00:26:13.222Z,19.03
2018-11-07T00:28:41.564Z,19.27
2018-11-07T00:31:09.870Z,15.20
2018-11-07T00:33:38.184Z,17.90
2018-11-07T00:36:06.515Z,18.87
2018-11-07T00:38:34.821Z,16.60
2018-11-07T00:41:03.136Z,16.17
2018-11-07T00:43:31.455Z,19.70
2018-11-07T00:45:59.795Z,18.07
2018-11-07T00:48:28.134Z,18.67
2018-11-07T00:50:56.482Z,18.80
2018-11-07T00:53:24.778Z,20.63
2018-11-07T00:55:53.135Z,21.83
2018-11-07T00:58:21.430Z,22.37
2018-11-07T01:00:49.781Z,25.97
2018-11-07T01:03:18.074Z,18.83
2018-11-07T01:05:46.385Z,22.70
2018-11-07T01:08:14.738Z,22.03
2018-11-07T01:10:43.034Z,23.70
2018-11-07T01:13:11.369Z,18.93
2018-11-07T01:15:39.728Z,22.50
2018-11-07T01:18:08.018Z,23.27
2018-11-07T01:20:36.336Z,19.77
2018-11-07T01:23:04.606Z,30.00
2018-11-07T01:25:32.993Z,20.50
2018-11-07T01:28:01.339Z,26.43
2018-11-07T01:30:29.718Z,24.53
2018-11-07T01:32:58.134Z,19.63
2018-11-07T01:35:26.542Z,23.53
2018-11-07T01:37:54.869Z,19.17
2018-11-07T01:40:23.263Z,23.60
2018-11-07T01:42:51.556Z,22.97
2018-11-07T01:45:19.911Z,22.30
2018-11-07T01:47:48.250Z,24.60
2018-11-07T01:50:16.510Z,23.20
2018-11-07T01:52:44.818Z,19.40
2018-11-07T01:55:13.172Z,21.23
2018-11-07T01:57:41.516Z,19.53
2018-11-07T02:00:11.553Z,18.37
2018-11-07T02:02:40.614Z,20.00
2018-11-07T02:05:08.926Z,21.57
2018-11-07T02:07:37.275Z,20.40
2018-11-07T02:10:06.645Z,20.97
2018-11-07T02:12:34.980Z,22.23
2018-11-07T02:15:03.316Z,24.90
2018-11-07T02:17:31.604Z,22.40
2018-11-07T02:19:59.921Z,24.40
2018-11-07T02:22:28.199Z,22.13
2018-11-07T02:24:56.518Z,20.27
2018-11-07T02:27:24.840Z,17.93
2018-11-07T02:29:53.176Z,20.20
2018-11-07T02:32:21.529Z,22.87
2018-11-07T02:34:49.843Z,23.07
2018-11-07T02:37:18.100Z,23.33
2018-11-07T02:39:46.426Z,17.37
2018-11-07T02:42:15.093Z,22.60
2018-11-07T02:44:43.444Z,20.20
2018-11-07T02:47:11.771Z,17.60
2018-11-07T02:49:40.096Z,27.63
2018-11-07T02:52:08.385Z,24.07
2018-11-07T02:54:36.725Z,24.07
2018-11-07T02:57:05.104Z,23.60
2018-11-07T02:59:33.428Z,24.37
2018-11-07T03:02:01.708Z,30.07
2018-11-07T03:04:30.046Z,23.03
2018-11-07T03:06:58.420Z,24.00
2018-11-07T03:09:26.770Z,20.00
2018-11-07T03:11:55.110Z,25.07
2018-11-07T03:14:23.473Z,25.10
2018-11-07T03:16:51.826Z,26.43
2018-11-07T03:19:20.172Z,22.93
2018-11-07T03:21:48.422Z,26.03
2018-11-07T03:24:16.755Z,30.43
2018-11-07T03:26:45.044Z,29.30
2018-11-07T03:29:13.420Z,28.07
2018-11-07T03:31:41.720Z,35.23
2018-11-07T03:34:10.105Z,49.10
2018-11-07T03:36:38.471Z,47.27
2018-11-07T03:39:08.835Z,45.43
2018-11-07T03:41:37.109Z,43.43
2018-11-07T03:44:05.946Z,26.00
2018-11-07T03:46:34.282Z,33.90
2018-11-07T03:49:02.674Z,29.93
2018-11-07T03:51:31.080Z,35.07
2018-11-07T03:53:59.494Z,40.23
2018-11-07T03:56:27.802Z,40.17
2018-11-07T03:58:56.266Z,41.33
2018-11-07T04:01:24.613Z,40.47
2018-11-07T04:03:52.940Z,40.77
2018-11-07T04:06:21.282Z,34.60
2018-11-07T04:08:49.572Z,27.67
2018-11-07T04:11:17.906Z,28.43
2018-11-07T04:13:46.196Z,39.33
2018-11-07T04:16:14.567Z,32.40
2018-11-07T04:18:42.907Z,38.23
2018-11-07T04:21:11.190Z,44.07
2018-11-07T04:23:39.553Z,39.93
2018-11-07T04:26:07.918Z,31.83
2018-11-07T04:28:36.260Z,26.93
2018-11-07T04:31:04.625Z,35.43
2018-11-07T04:33:32.951Z,30.73
2018-11-07T04:36:01.365Z,27.60
2018-11-07T04:38:29.693Z,23.13
2018-11-07T04:40:58.007Z,30.13
2018-11-07T04:43:26.316Z,29.43
2018-11-07T04:45:54.654Z,29.23
2018-11-07T04:48:22.992Z,25.30
2018-11-07T04:50:51.286Z,33.00
2018-11-07T04:53:19.601Z,26.20
2018-11-07T04:55:47.939Z,29.13
2018-11-07T04:58:16.302Z,36.93
2018-11-07T05:00:44.626Z,37.60
2018-11-07T05:03:12.918Z,45.77
2018-11-07T05:05:41.214Z,48.23
2018-11-07T05:08:09.578Z,40.47
2018-11-07T05:10:37.906Z,34.60
2018-11-07T05:13:06.245Z,37.23
2018-11-07T05:15:34.538Z,36.03
2018-11-07T05:18:02.868Z,33.17
2018-11-07T05:20:31.345Z,30.87
2018-11-07T05:22:59.688Z,44.20
2018-11-07T05:25:28.059Z,28.30
2018-11-07T05:27:56.442Z,30.33
2018-11-07T05:30:24.778Z,27.93
2018-11-07T05:32:53.089Z,26.57
2018-11-07T05:35:21.417Z,30.87
2018-11-07T05:37:49.721Z,26.53
2018-11-07T05:40:18.040Z,28.83
2018-11-07T05:42:47.276Z,28.57
2018-11-07T05:45:15.599Z,32.70
2018-11-07T05:47:43.869Z,29.37
2018-11-07T05:50:12.173Z,26.33
2018-11-07T05:52:40.427Z,25.90
2018-11-07T05:55:09.458Z,26.07
2018-11-07T05:57:37.734Z,31.90
2018-11-07T06:00:07.567Z,40.50
2018-11-07T06:02:35.881Z,36.70
2018-11-07T06:05:04.359Z,26.00
2018-11-07T06:07:32.735Z,18.47
2018-11-07T06:10:01.104Z,20.40
2018-11-07T06:12:29.420Z,21.23
2018-11-07T06:14:57.798Z,18.97
2018-11-07T06:17:26.139Z,107.27
2018-11-07T06:19:54.474Z,28.30
2018-11-07T06:22:22.760Z,24.83
2018-11-07T06:24:51.111Z,25.60
2018-11-07T06:27:19.442Z,21.97
2018-11-07T06:29:47.792Z,19.57
2018-11-07T06:32:16.478Z,19.80
2018-11-07T06:34:44.856Z,16.17
2018-11-07T06:37:13.175Z,15.13
2018-11-07T06:39:41.502Z,16.43
2018-11-07T06:42:09.870Z,19.07
2018-11-07T06:44:38.273Z,22.47
2018-11-07T06:47:06.920Z,23.33
2018-11-07T06:49:35.271Z,21.77
2018-11-07T06:52:03.642Z,23.90
2018-11-07T06:54:32.029Z,21.00
2018-11-07T06:57:00.438Z,27.70
2018-11-07T06:59:28.710Z,30.63
2018-11-07T07:01:57.042Z,22.00
2018-11-07T07:04:25.310Z,19.80
2018-11-07T07:06:53.652Z,22.50
2018-11-07T07:09:21.965Z,25.50
2018-11-07T07:11:51.160Z,23.17
2018-11-07T07:14:19.776Z,20.83
2018-11-07T07:16:48.362Z,24.93
2018-11-07T07:19:16.971Z,26.40
2018-11-07T07:21:45.584Z,24.33
2018-11-07T07:24:14.094Z,26.20
2018-11-07T07:26:42.674Z,31.30
2018-11-07T07:29:11.173Z,24.67
2018-11-07T07:31:39.760Z,24.80
2018-11-07T07:34:08.451Z,24.73
2018-11-07T07:36:36.961Z,21.17
2018-11-07T07:39:07.974Z,23.50
2018-11-07T07:41:37.066Z,27.57
2018-11-07T07:44:05.723Z,29.77
2018-11-07T07:46:34.360Z,36.30
2018-11-07T07:49:03.025Z,48.57
2018-11-07T07:51:31.631Z,24.77
2018-11-07T07:54:00.309Z,26.23
2018-11-07T07:56:28.715Z,26.83
2018-11-07T07:58:57.314Z,25.97
2018-11-07T08:01:25.830Z,23.30
2018-11-07T08:03:54.405Z,21.33
2018-11-07T08:06:23.447Z,21.33
2018-11-07T08:08:51.916Z,23.40
2018-11-07T08:11:20.546Z,28.80
2018-11-07T08:13:49.150Z,26.87
2018-11-07T08:16:17.671Z,34.20
2018-11-07T08:18:46.174Z,26.30
2018-11-07T08:21:14.830Z,27.57
2018-11-07T08:23:43.219Z,25.50
2018-11-07T08:26:11.815Z,28.33
2018-11-07T08:28:40.497Z,24.60
2018-11-07T08:31:09.025Z,23.80
2018-11-07T08:33:37.418Z,27.73
2018-11-07T08:36:06.163Z,28.00
2018-11-07T08:38:34.441Z,30.10
2018-11-07T08:41:02.834Z,30.13
2018-11-07T08:43:31.158Z,23.53
2018-11-07T08:45:59.451Z,24.67
2018-11-07T08:48:27.758Z,22.93
2018-11-07T08:50:56.062Z,27.47
2018-11-07T08:53:24.387Z,24.80
2018-11-07T08:55:52.754Z,29.77
2018-11-07T08:58:21.020Z,25.70
2018-11-07T09:00:49.371Z,26.90
2018-11-07T09:03:17.626Z,26.77
2018-11-07T09:05:45.919Z,25.50
2018-11-07T09:08:14.258Z,28.57
2018-11-07T09:10:42.535Z,28.60
2018-11-07T09:13:10.844Z,31.53
2018-11-07T09:15:39.189Z,33.17
2018-11-07T09:18:07.478Z,29.87
2018-11-07T09:20:35.850Z,31.00
2018-11-07T09:23:04.240Z,20.00
2018-11-07T09:25:32.547Z,20.37
2018-11-07T09:28:00.872Z,26.47
2018-11-07T09:30:29.256Z,19.63
2018-11-07T09:32:57.570Z,25.53
2018-11-07T09:35:25.962Z,20.70
2018-11-07T09:37:54.279Z,30.70
2018-11-07T09:40:22.661Z,19.10
2018-11-07T09:42:51.289Z,22.07
2018-11-07T09:45:20.883Z,16.27
2018-11-07T09:47:49.299Z,20.03
2018-11-07T09:50:18.371Z,26.60
2018-11-07T09:52:47.538Z,34.37
2018-11-07T09:55:17.982Z,21.93
2018-11-07T09:57:46.337Z,23.00
2018-11-07T10:00:17.224Z,26.90
2018-11-07T10:02:45.898Z,40.37
2018-11-07T10:05:14.980Z,35.17
2018-11-07T10:07:43.346Z,23.90
2018-11-07T10:10:13.881Z,51.87
2018-11-07T10:12:42.610Z,18.80
2018-11-07T10:15:11.822Z,22.40
2018-11-07T10:17:40.181Z,42.83
2018-11-07T10:20:12.383Z,38.40
2018-11-07T10:22:41.079Z,35.43
2018-11-07T10:25:10.289Z,26.10
2018-11-07T10:27:38.880Z,23.77
2018-11-07T10:30:09.319Z,20.57
2018-11-07T10:32:37.462Z,16.40
2018-11-07T10:35:06.881Z,15.30
2018-11-07T10:37:35.270Z,14.30
2018-11-07T10:40:03.656Z,17.33
2018-11-07T10:42:31.964Z,18.53
2018-11-07T10:45:00.318Z,16.23
2018-11-07T10:47:28.626Z,18.63
2018-11-07T10:49:56.999Z,17.83
2018-11-07T10:52:25.370Z,17.17
2018-11-07T10:54:53.632Z,19.67
2018-11-07T10:57:21.906Z,14.57
2018-11-07T10:59:50.282Z,19.63
2018-11-07T11:02:23.862Z,22.10
2018-11-07T11:04:52.297Z,23.87
2018-11-07T11:07:20.600Z,16.87
2018-11-07T11:09:48.917Z,15.53
2018-11-07T11:12:17.259Z,15.40
2018-11-07T11:14:45.609Z,16.10
2018-11-07T11:17:14.495Z,15.50
2018-11-07T11:19:42.944Z,15.83
2018-11-07T11:22:11.352Z,16.03
2018-11-07T11:24:39.654Z,14.57
2018-11-07T11:27:08.047Z,11.73
2018-11-07T11:29:36.374Z,10.30
2018-11-07T11:32:05.574Z,15.23
2018-11-07T11:34:34.057Z,14.43
2018-11-07T11:37:02.285Z,11.70
2018-11-07T11:39:31.111Z,11.07
2018-11-07T11:41:59.373Z,9.23
2018-11-07T11:44:27.670Z,14.53
2018-11-07T11:46:56.014Z,10.00
2018-11-07T11:49:24.343Z,9.60
2018-11-07T11:51:52.652Z,8.10
2018-11-07T11:54:20.962Z,8.87
2018-11-07T11:56:49.254Z,11.20
2018-11-07T11:59:17.698Z,7.23
2018-11-07T12:01:46.593Z,7.27
2018-11-07T12:04:14.938Z,8.00
2018-11-07T12:06:43.223Z,8.80
2018-11-07T12:09:11.670Z,6.00
2018-11-07T12:11:39.985Z,5.77
2018-11-07T12:14:08.282Z,4.73
2018-11-07T12:16:36.614Z,4.90
2018-11-07T12:19:05.096Z,5.83
2018-11-07T12:21:33.388Z,4.70
2018-11-07T12:24:01.752Z,4.20
2018-11-07T12:26:30.101Z,4.80
2018-11-07T12:28:58.453Z,4.80
2018-11-07T12:31:26.763Z,3.97
2018-11-07T12:33:55.087Z,5.60
2018-11-07T12:36:23.466Z,6.07
2018-11-07T12:38:51.762Z,5.27
2018-11-07T12:41:20.068Z,5.27
2018-11-07T12:43:48.386Z,5.67
2018-11-07T12:46:16.706Z,4.87
2018-11-07T12:48:44.987Z,4.20
2018-11-07T12:51:13.350Z,6.27
2018-11-07T12:53:41.888Z,7.23
2018-11-07T12:56:10.188Z,7.03
2018-11-07T12:58:38.544Z,7.20
2018-11-07T13:01:06.904Z,4.73
2018-11-07T13:03:35.170Z,4.77
2018-11-07T13:06:03.470Z,7.60
2018-11-07T13:08:31.776Z,5.17
2018-11-07T13:11:00.108Z,4.30
2018-11-07T13:13:28.440Z,3.73
2018-11-07T13:15:56.790Z,3.97
2018-11-07T13:18:25.138Z,5.40
2018-11-07T13:20:53.528Z,7.70
2018-11-07T13:23:21.840Z,5.50
2018-11-07T13:25:50.154Z,4.10
2018-11-07T13:28:18.552Z,6.00
2018-11-07T13:30:46.774Z,5.40
2018-11-07T13:33:15.042Z,6.90
2018-11-07T13:35:43.316Z,6.30
2018-11-07T13:38:11.784Z,4.80
2018-11-07T13:40:39.959Z,5.37
2018-11-07T13:43:08.253Z,5.80
2018-11-07T13:45:36.585Z,6.80
2018-11-07T13:48:04.824Z,5.17
2018-11-07T13:50:33.127Z,4.50
2018-11-07T13:53:01.479Z,5.23
2018-11-07T13:55:29.794Z,7.30
2018-11-07T13:57:58.189Z,7.90
2018-11-07T14:00:26.556Z,4.47
2018-11-07T14:02:54.951Z,6.13
2018-11-07T14:05:23.357Z,6.13
2018-11-07T14:07:51.628Z,7.50
2018-11-07T14:10:26.344Z,6.23
2018-11-07T14:12:55.859Z,7.00
2018-11-07T14:15:24.226Z,5.03
2018-11-07T14:17:52.718Z,6.27
2018-11-07T14:20:21.089Z,6.53
2018-11-07T14:22:49.394Z,7.43
2018-11-07T14:25:17.749Z,5.20
2018-11-07T14:27:46.360Z,8.77
2018-11-07T14:30:17.859Z,4.83
2018-11-07T14:32:51.796Z,4.00
2018-11-07T14:35:20.190Z,12.90
2018-11-07T14:37:48.507Z,4.73
2018-11-07T14:40:17.897Z,4.43
2018-11-07T14:42:46.201Z,4.47
2018-11-07T14:45:15.432Z,4.97
2018-11-07T14:47:43.801Z,12.03
2018-11-07T14:50:12.750Z,10.20
2018-11-07T14:52:49.182Z,10.00
2018-11-07T14:55:17.578Z,8.70
2018-11-07T14:57:46.942Z,6.77
2018-11-07T15:00:16.245Z,8.20
2018-11-07T15:02:45.210Z,13.20
2018-11-07T15:05:14.604Z,6.30
2018-11-07T15:07:43.580Z,8.40
2018-11-07T15:10:12.892Z,9.40
2018-11-07T15:12:41.167Z,9.07
2018-11-07T15:15:11.836Z,8.93
2018-11-07T15:17:40.165Z,5.20
2018-11-07T15:20:09.778Z,39.43
2018-11-07T15:22:38.122Z,6.40
2018-11-07T15:25:07.541Z,4.43
2018-11-07T15:27:35.846Z,7.73
2018-11-07T15:30:04.275Z,8.60
2018-11-07T15:32:32.666Z,6.03
2018-11-07T15:35:01.008Z,5.17
2018-11-07T15:37:29.375Z,6.90
2018-11-07T15:39:58.830Z,10.53
2018-11-07T15:42:27.249Z,7.27
2018-11-07T15:44:55.605Z,7.30
2018-11-07T15:47:23.924Z,6.70
2018-11-07T15:49:57.662Z,8.97
2018-11-07T15:52:25.966Z,10.77
2018-11-07T15:54:55.316Z,7.43
2018-11-07T15:57:23.618Z,7.20
2018-11-07T15:59:51.940Z,6.60
2018-11-07T16:02:20.322Z,7.87
2018-11-07T16:04:48.640Z,10.90
2018-11-07T16:07:16.978Z,8.20
2018-11-07T16:09:45.301Z,9.67
2018-11-07T16:12:14.720Z,9.30
2018-11-07T16:14:44.096Z,8.73
2018-11-07T16:17:12.368Z,10.23
2018-11-07T16:19:40.671Z,8.10
2018-11-07T16:22:09.037Z,10.70
2018-11-07T16:24:37.351Z,6.37
2018-11-07T16:27:05.695Z,9.77
2018-11-07T16:29:33.945Z,7.13
2018-11-07T16:32:02.236Z,8.53
2018-11-07T16:34:30.541Z,8.77
2018-11-07T16:36:58.888Z,9.30
2018-11-07T16:39:27.196Z,6.80
2018-11-07T16:41:56.674Z,7.40
2018-11-07T16:44:25.981Z,10.73
2018-11-07T16:46:54.397Z,8.67
2018-11-07T16:49:22.744Z,7.60
2018-11-07T16:51:51.061Z,11.47
2018-11-07T16:54:21.437Z,13.70
2018-11-07T16:56:49.986Z,7.93
2018-11-07T16:59:18.799Z,11.90
2018-11-07T17:01:47.168Z,11.30
2018-11-07T17:04:15.477Z,8.33
2018-11-07T17:06:43.802Z,7.30
2018-11-07T17:09:12.133Z,10.97
2018-11-07T17:11:41.130Z,9.87
2018-11-07T17:14:09.626Z,10.63
2018-11-07T17:16:37.938Z,9.00
2018-11-07T17:19:06.250Z,14.00
2018-11-07T17:21:34.608Z,15.73
2018-11-07T17:24:02.988Z,11.50
2018-11-07T17:26:31.422Z,9.07
2018-11-07T17:28:59.701Z,7.67
2018-11-07T17:31:28.112Z,6.60
2018-11-07T17:33:56.666Z,7.87
2018-11-07T17:36:24.986Z,10.30
2018-11-07T17:38:53.313Z,8.13
2018-11-07T17:41:21.612Z,7.80
2018-11-07T17:43:49.917Z,10.60
2018-11-07T17:46:18.249Z,8.07
2018-11-07T17:48:47.720Z,11.67
2018-11-07T17:51:16.113Z,7.97
2018-11-07T17:53:44.387Z,6.93
2018-11-07T17:56:12.740Z,6.13
2018-11-07T17:58:40.990Z,7.97
2018-11-07T18:01:09.255Z,7.97
2018-11-07T18:03:37.635Z,9.77
2018-11-07T18:06:07.000Z,7.73
2018-11-07T18:08:35.278Z,8.20
2018-11-07T18:11:04.345Z,10.13
2018-11-07T18:13:32.702Z,11.83
2018-11-07T18:16:00.962Z,8.83
2018-11-07T18:18:29.306Z,8.10
2018-11-07T18:20:57.590Z,7.40
2018-11-07T18:23:25.925Z,8.43
2018-11-07T18:25:56.243Z,10.80
2018-11-07T18:28:24.604Z,11.50
2018-11-07T18:30:53.248Z,10.93
2018-11-07T18:33:21.556Z,10.03
2018-11-07T18:35:49.893Z,10.30
2018-11-07T18:38:18.196Z,7.70
2018-11-07T18:40:46.522Z,10.33
2018-11-07T18:43:14.837Z,9.50
2018-11-07T18:45:43.166Z,7.90
2018-11-07T18:48:11.458Z,8.53
2018-11-07T18:50:39.890Z,6.80
2018-11-07T18:53:08.076Z,9.83
2018-11-07T18:55:36.325Z,15.13
2018-11-07T18:58:04.825Z,12.10
2018-11-07T19:00:33.106Z,10.63
2018-11-07T19:03:01.516Z,8.90
2018-11-07T19:05:29.841Z,8.87
2018-11-07T19:07:58.097Z,11.40
2018-11-07T19:10:26.377Z,10.00
2018-11-07T19:12:54.773Z,8.10
2018-11-07T19:15:23.149Z,11.87
2018-11-07T19:17:51.980Z,14.87
2018-11-07T19:20:20.568Z,15.13
2018-11-07T19:22:49.897Z,18.83
2018-11-07T19:25:19.549Z,18.30
2018-11-07T19:27:47.867Z,18.10
2018-11-07T19:30:19.350Z,16.73
2018-11-07T19:32:48.718Z,11.00
2018-11-07T19:35:17.924Z,9.77
2018-11-07T19:37:46.769Z,11.13
2018-11-07T19:40:16.595Z,11.80
2018-11-07T19:42:44.980Z,11.60
2018-11-07T19:45:15.716Z,13.97
2018-11-07T19:47:44.044Z,10.70
2018-11-07T19:50:13.664Z,10.13
2018-11-07T19:52:42.224Z,15.73
2018-11-07T19:55:13.362Z,11.40
2018-11-07T19:57:42.018Z,11.00
2018-11-07T20:00:12.783Z,31.33
2018-11-07T20:02:41.565Z,19.80
2018-11-07T20:05:09.846Z,11.53
2018-11-07T20:07:39.054Z,9.20
2018-11-07T20:10:13.180Z,14.83
2018-11-07T20:12:41.521Z,14.77
2018-11-07T20:15:11.186Z,12.53
2018-11-07T20:17:39.571Z,11.60
2018-11-07T20:20:09.010Z,9.50
2018-11-07T20:22:37.391Z,14.70
2018-11-07T20:25:06.740Z,12.53
2018-11-07T20:27:35.049Z,13.13
2018-11-07T20:30:03.352Z,11.70
2018-11-07T20:32:31.685Z,14.23
2018-11-07T20:34:59.987Z,18.10
2018-11-07T20:37:28.323Z,15.63
2018-11-07T20:39:56.590Z,12.47
2018-11-07T20:42:24.991Z,13.60
2018-11-07T20:44:53.353Z,12.73
2018-11-07T20:47:21.753Z,13.77
2018-11-07T20:49:50.114Z,17.70
2018-11-07T20:52:18.646Z,12.47
2018-11-07T20:54:47.215Z,16.73
2018-11-07T20:57:19.111Z,17.03
2018-11-07T20:59:47.424Z,25.97
2018-11-07T21:02:15.724Z,17.50
2018-11-07T21:04:44.084Z,20.13
2018-11-07T21:07:15.949Z,25.40
2018-11-07T21:09:44.274Z,24.37
2018-11-07T21:12:12.599Z,19.93
2018-11-07T21:14:40.890Z,25.67
2018-11-07T21:17:13.630Z,22.47
2018-11-07T21:19:41.980Z,19.83
2018-11-07T21:22:11.470Z,34.53
2018-11-07T21:24:39.950Z,21.80
2018-11-07T21:27:08.303Z,19.33
2018-11-07T21:29:36.626Z,20.67
2018-11-07T21:32:05.514Z,22.53
2018-11-07T21:34:33.935Z,19.17
2018-11-07T21:37:02.215Z,23.30
2018-11-07T21:39:30.525Z,21.93
2018-11-07T21:41:58.827Z,17.37
2018-11-07T21:44:27.242Z,16.87
2018-11-07T21:46:55.567Z,17.30
2018-11-07T21:49:23.919Z,16.67
2018-11-07T21:51:52.252Z,19.97
2018-11-07T21:54:20.558Z,18.23
2018-11-07T21:56:48.864Z,17.80
2018-11-07T21:59:17.119Z,19.17
2018-11-07T22:01:45.448Z,21.63
2018-11-07T22:04:13.692Z,16.40
2018-11-07T22:06:42.042Z,16.60
2018-11-07T22:09:11.203Z,15.00
2018-11-07T22:11:39.514Z,14.53
2018-11-07T22:14:08.347Z,12.80
2018-11-07T22:16:37.453Z,17.00
2018-11-07T22:19:05.931Z,13.00
2018-11-07T22:21:36.384Z,16.97
2018-11-07T22:24:04.829Z,18.80
2018-11-07T22:26:33.083Z,15.93
2018-11-07T22:29:01.379Z,17.53
2018-11-07T22:31:29.746Z,21.60
2018-11-07T22:33:57.998Z,19.10
2018-11-07T22:36:27.382Z,17.70
2018-11-07T22:38:55.720Z,19.80
2018-11-07T22:41:24.066Z,17.33
2018-11-07T22:43:52.411Z,13.50
2018-11-07T22:46:20.695Z,15.63
2018-11-07T22:48:48.984Z,15.70
2018-11-07T22:51:18.386Z,15.10
2018-11-07T22:53:46.702Z,18.23
2018-11-07T22:56:15.021Z,15.57
2018-11-07T22:58:43.288Z,16.93
2018-11-07T23:01:16.762Z,15.13
2018-11-07T23:03:46.317Z,17.50
2018-11-07T23:06:14.571Z,18.60
2018-11-07T23:08:42.887Z,17.93
2018-11-07T23:11:11.265Z,17.47
2018-11-07T23:13:39.568Z,16.83
2018-11-07T23:16:07.855Z,15.60
2018-11-07T23:18:36.299Z,18.67
2018-11-07T23:21:04.823Z,15.07
2018-11-07T23:23:33.133Z,16.73
2018-11-07T23:26:01.501Z,17.60
2018-11-07T23:28:29.812Z,15.03
2018-11-07T23:30:58.187Z,15.77
2018-11-07T23:33:26.495Z,19.00
2018-11-07T23:35:54.763Z,16.70
2018-11-07T23:38:23.015Z,16.93
2018-11-07T23:40:51.356Z,19.70
2018-11-07T23:43:19.733Z,17.80
2018-11-07T23:45:48.023Z,18.23
2018-11-07T23:48:16.325Z,18.77
2018-11-07T23:50:44.696Z,20.50
2018-11-07T23:53:14.408Z,23.90
2018-11-07T23:55:43.830Z,16.50
2018-11-07T23:58:12.256Z,19.50
